sensor_id;sensor_type;location;lat;lon;timestamp;P1;P2;P0
45440;PMS5003;31189;38.790;-77.084;2023-09-07T00:01:58;22;19;
45440;PMS5003;31189;38.790;-77.084;2023-09-07T00:04:24;17;17;
45440;PMS5003;31189;38.790;-77.084;2023-09-07T00:06:49;20;20;
45440;PMS5003;31189;38.790;-77.084;2023-09-07T00:09:15;21;19;
45440;PMS5003;31189;38.790;-77.084;2023-09-07T00:11:42;20;20;
45440;PMS5003;31189;38.790;-77.084;2023-09-07T00:14:08;22;20;
45440;PMS5003;31189;38.790;-77.084;2023-09-07T00:16:32;29;21;
45440;PMS5003;31189;38.790;-77.084;2023-09-07T00:18:58;26;22;
45440;PMS5003;31189;38.790;-77.084;2023-09-07T00:21:23;25;23;
45440;PMS5003;31189;38.790;-77.084;2023-09-07T00:23:49;24;23;
45440;PMS5003;31189;38.790;-77.084;2023-09-07T00:26:14;21;21;
45440;PMS5003;31189;38.790;-77.084;2023-09-07T00:28:39;25;21;
45440;PMS5003;31189;38.790;-77.084;2023-09-07T00:31:04;25;23;
45440;PMS5003;31189;38.790;-77.084;2023-09-07T00:33:30;34;22;
45440;PMS5003;31189;38.790;-77.084;2023-09-07T00:35:55;22;22;
45440;PMS5003;31189;38.790;-77.084;2023-09-07T00:38:21;25;24;
45440;PMS5003;31189;38.790;-77.084;2023-09-07T00:40:47;24;23;
45440;PMS5003;31189;38.790;-77.084;2023-09-07T00:43:12;26;23;
45440;PMS5003;31189;38.790;-77.084;2023-09-07T00:45:38;23;23;
45440;PMS5003;31189;38.790;-77.084;2023-09-07T00:48:04;27;26;
45440;PMS5003;31189;38.790;-77.084;2023-09-07T00:50:29;26;25;
45440;PMS5003;31189;38.790;-77.084;2023-09-07T00:52:55;29;26;
45440;PMS5003;31189;38.790;-77.084;2023-09-07T00:55:21;27;25;
45440;PMS5003;31189;38.790;-77.084;2023-09-07T00:57:47;29;29;
45440;PMS5003;31189;38.790;-77.084;2023-09-07T01:00:12;27;26;
45440;PMS5003;31189;38.790;-77.084;2023-09-07T01:02:38;38;26;
45440;PMS5003;31189;38.790;-77.084;2023-09-07T01:05:03;31;24;
45440;PMS5003;31189;38.790;-77.084;2023-09-07T01:07:29;28;28;
45440;PMS5003;31189;38.790;-77.084;2023-09-07T01:09:54;26;24;
45440;PMS5003;31189;38.790;-77.084;2023-09-07T01:12:19;26;26;
45440;PMS5003;31189;38.790;-77.084;2023-09-07T01:14:44;33;26;
45440;PMS5003;31189;38.790;-77.084;2023-09-07T01:17:09;29;27;
45440;PMS5003;31189;38.790;-77.084;2023-09-07T01:19:35;30;26;
45440;PMS5003;31189;38.790;-77.084;2023-09-07T01:22:01;33;23;
45440;PMS5003;31189;38.790;-77.084;2023-09-07T01:24:26;20;20;
45440;PMS5003;31189;38.790;-77.084;2023-09-07T01:26:52;23;23;
45440;PMS5003;31189;38.790;-77.084;2023-09-07T01:29:17;21;21;
45440;PMS5003;31189;38.790;-77.084;2023-09-07T01:31:42;23;22;
45440;PMS5003;31189;38.790;-77.084;2023-09-07T01:34:07;28;23;
45440;PMS5003;31189;38.790;-77.084;2023-09-07T01:36:33;29;25;
45440;PMS5003;31189;38.790;-77.084;2023-09-07T01:38:59;20;20;
45440;PMS5003;31189;38.790;-77.084;2023-09-07T01:41:24;23;21;
45440;PMS5003;31189;38.790;-77.084;2023-09-07T01:43:49;23;21;
45440;PMS5003;31189;38.790;-77.084;2023-09-07T01:46:15;33;23;
45440;PMS5003;31189;38.790;-77.084;2023-09-07T01:48:41;23;23;
45440;PMS5003;31189;38.790;-77.084;2023-09-07T01:51:06;19;19;
45440;PMS5003;31189;38.790;-77.084;2023-09-07T01:53:32;17;17;
45440;PMS5003;31189;38.790;-77.084;2023-09-07T01:55:58;25;19;
45440;PMS5003;31189;38.790;-77.084;2023-09-07T01:58:23;23;21;
45440;PMS5003;31189;38.790;-77.084;2023-09-07T02:00:49;22;21;
45440;PMS5003;31189;38.790;-77.084;2023-09-07T02:03:14;24;23;
45440;PMS5003;31189;38.790;-77.084;2023-09-07T02:05:40;24;22;
45440;PMS5003;31189;38.790;-77.084;2023-09-07T02:08:05;21;20;
45440;PMS5003;31189;38.790;-77.084;2023-09-07T02:10:31;25;24;
45440;PMS5003;31189;38.790;-77.084;2023-09-07T02:12:56;25;22;
45440;PMS5003;31189;38.790;-77.084;2023-09-07T02:15:22;19;19;
45440;PMS5003;31189;38.790;-77.084;2023-09-07T02:17:47;22;19;
45440;PMS5003;31189;38.790;-77.084;2023-09-07T02:20:13;19;19;
45440;PMS5003;31189;38.790;-77.084;2023-09-07T02:22:38;18;18;
45440;PMS5003;31189;38.790;-77.084;2023-09-07T02:25:04;32;23;
45440;PMS5003;31189;38.790;-77.084;2023-09-07T02:27:29;27;24;
45440;PMS5003;31189;38.790;-77.084;2023-09-07T02:29:55;24;22;
45440;PMS5003;31189;38.790;-77.084;2023-09-07T02:32:20;25;23;
45440;PMS5003;31189;38.790;-77.084;2023-09-07T02:34:46;18;18;
45440;PMS5003;31189;38.790;-77.084;2023-09-07T02:37:11;31;20;
45440;PMS5003;31189;38.790;-77.084;2023-09-07T02:39:37;23;23;
45440;PMS5003;31189;38.790;-77.084;2023-09-07T02:42:03;15;15;
45440;PMS5003;31189;38.790;-77.084;2023-09-07T02:44:28;21;21;
45440;PMS5003;31189;38.790;-77.084;2023-09-07T02:46:54;19;19;
45440;PMS5003;31189;38.790;-77.084;2023-09-07T02:49:20;28;19;
45440;PMS5003;31189;38.790;-77.084;2023-09-07T02:51:45;18;18;
45440;PMS5003;31189;38.790;-77.084;2023-09-07T02:54:11;22;21;
45440;PMS5003;31189;38.790;-77.084;2023-09-07T02:56:36;26;23;
45440;PMS5003;31189;38.790;-77.084;2023-09-07T02:59:01;34;22;
45440;PMS5003;31189;38.790;-77.084;2023-09-07T03:01:27;21;20;
45440;PMS5003;31189;38.790;-77.084;2023-09-07T03:03:52;26;22;
45440;PMS5003;31189;38.790;-77.084;2023-09-07T03:06:18;23;22;
45440;PMS5003;31189;38.790;-77.084;2023-09-07T03:08:43;25;24;
45440;PMS5003;31189;38.790;-77.084;2023-09-07T03:11:09;24;22;
45440;PMS5003;31189;38.790;-77.084;2023-09-07T03:13:35;22;22;
45440;PMS5003;31189;38.790;-77.084;2023-09-07T03:16:00;28;22;
45440;PMS5003;31189;38.790;-77.084;2023-09-07T03:18:25;20;20;
45440;PMS5003;31189;38.790;-77.084;2023-09-07T03:20:52;18;18;
45440;PMS5003;31189;38.790;-77.084;2023-09-07T03:23:16;26;21;
45440;PMS5003;31189;38.790;-77.084;2023-09-07T03:25:41;22;21;
45440;PMS5003;31189;38.790;-77.084;2023-09-07T03:28:06;28;21;
45440;PMS5003;31189;38.790;-77.084;2023-09-07T03:30:32;21;21;
45440;PMS5003;31189;38.790;-77.084;2023-09-07T03:32:57;28;26;
45440;PMS5003;31189;38.790;-77.084;2023-09-07T03:35:23;23;23;
45440;PMS5003;31189;38.790;-77.084;2023-09-07T03:37:49;22;20;
45440;PMS5003;31189;38.790;-77.084;2023-09-07T03:40:14;28;21;
45440;PMS5003;31189;38.790;-77.084;2023-09-07T03:42:39;20;20;
45440;PMS5003;31189;38.790;-77.084;2023-09-07T03:45:05;23;21;
45440;PMS5003;31189;38.790;-77.084;2023-09-07T03:47:30;19;19;
45440;PMS5003;31189;38.790;-77.084;2023-09-07T03:49:56;22;22;
45440;PMS5003;31189;38.790;-77.084;2023-09-07T03:52:21;37;25;
45440;PMS5003;31189;38.790;-77.084;2023-09-07T03:54:47;20;18;
45440;PMS5003;31189;38.790;-77.084;2023-09-07T03:57:12;27;27;
45440;PMS5003;31189;38.790;-77.084;2023-09-07T03:59:38;26;25;
45440;PMS5003;31189;38.790;-77.084;2023-09-07T04:02:03;23;21;
45440;PMS5003;31189;38.790;-77.084;2023-09-07T04:04:28;28;26;
45440;PMS5003;31189;38.790;-77.084;2023-09-07T04:06:54;22;20;
45440;PMS5003;31189;38.790;-77.084;2023-09-07T04:09:19;25;23;
45440;PMS5003;31189;38.790;-77.084;2023-09-07T04:11:45;23;22;
45440;PMS5003;31189;38.790;-77.084;2023-09-07T04:14:10;25;25;
45440;PMS5003;31189;38.790;-77.084;2023-09-07T04:16:36;24;22;
45440;PMS5003;31189;38.790;-77.084;2023-09-07T04:19:01;24;22;
45440;PMS5003;31189;38.790;-77.084;2023-09-07T04:21:26;23;23;
45440;PMS5003;31189;38.790;-77.084;2023-09-07T04:23:52;24;23;
45440;PMS5003;31189;38.790;-77.084;2023-09-07T04:26:17;23;21;
45440;PMS5003;31189;38.790;-77.084;2023-09-07T04:28:43;34;22;
45440;PMS5003;31189;38.790;-77.084;2023-09-07T04:31:08;24;24;
45440;PMS5003;31189;38.790;-77.084;2023-09-07T04:33:34;26;23;
45440;PMS5003;31189;38.790;-77.084;2023-09-07T04:38:25;26;25;
45440;PMS5003;31189;38.790;-77.084;2023-09-07T04:40:51;23;23;
45440;PMS5003;31189;38.790;-77.084;2023-09-07T04:43:16;25;23;
45440;PMS5003;31189;38.790;-77.084;2023-09-07T04:45:45;27;26;
45440;PMS5003;31189;38.790;-77.084;2023-09-07T04:48:08;27;26;
45440;PMS5003;31189;38.790;-77.084;2023-09-07T04:50:33;26;26;
45440;PMS5003;31189;38.790;-77.084;2023-09-07T04:52:58;25;24;
45440;PMS5003;31189;38.790;-77.084;2023-09-07T04:55:24;28;27;
45440;PMS5003;31189;38.790;-77.084;2023-09-07T04:57:49;26;24;
45440;PMS5003;31189;38.790;-77.084;2023-09-07T05:00:15;36;24;
45440;PMS5003;31189;38.790;-77.084;2023-09-07T05:02:41;28;26;
45440;PMS5003;31189;38.790;-77.084;2023-09-07T05:05:06;34;23;
45440;PMS5003;31189;38.790;-77.084;2023-09-07T05:07:32;22;21;
45440;PMS5003;31189;38.790;-77.084;2023-09-07T05:09:57;24;23;
45440;PMS5003;31189;38.790;-77.084;2023-09-07T05:12:22;33;26;
45440;PMS5003;31189;38.790;-77.084;2023-09-07T05:14:48;33;25;
45440;PMS5003;31189;38.790;-77.084;2023-09-07T05:17:13;36;25;
45440;PMS5003;31189;38.790;-77.084;2023-09-07T05:19:38;29;25;
45440;PMS5003;31189;38.790;-77.084;2023-09-07T05:22:04;28;25;
45440;PMS5003;31189;38.790;-77.084;2023-09-07T05:24:29;23;23;
45440;PMS5003;31189;38.790;-77.084;2023-09-07T05:26:55;22;22;
45440;PMS5003;31189;38.790;-77.084;2023-09-07T05:29:20;24;23;
45440;PMS5003;31189;38.790;-77.084;2023-09-07T05:31:46;24;18;
45440;PMS5003;31189;38.790;-77.084;2023-09-07T05:34:11;29;27;
45440;PMS5003;31189;38.790;-77.084;2023-09-07T05:36:37;24;23;
45440;PMS5003;31189;38.790;-77.084;2023-09-07T05:39:02;28;27;
45440;PMS5003;31189;38.790;-77.084;2023-09-07T05:41:28;30;26;
45440;PMS5003;31189;38.790;-77.084;2023-09-07T05:43:53;28;27;
45440;PMS5003;31189;38.790;-77.084;2023-09-07T05:46:19;27;27;
45440;PMS5003;31189;38.790;-77.084;2023-09-07T05:48:45;27;25;
45440;PMS5003;31189;38.790;-77.084;2023-09-07T05:51:10;25;24;
45440;PMS5003;31189;38.790;-77.084;2023-09-07T05:53:35;28;27;
45440;PMS5003;31189;38.790;-77.084;2023-09-07T05:56:01;28;26;
45440;PMS5003;31189;38.790;-77.084;2023-09-07T05:58:26;28;25;
45440;PMS5003;31189;38.790;-77.084;2023-09-07T06:00:52;26;26;
45440;PMS5003;31189;38.790;-77.084;2023-09-07T06:03:17;30;27;
45440;PMS5003;31189;38.790;-77.084;2023-09-07T06:05:42;29;29;
45440;PMS5003;31189;38.790;-77.084;2023-09-07T06:08:08;30;26;
45440;PMS5003;31189;38.790;-77.084;2023-09-07T06:10:33;32;29;
45440;PMS5003;31189;38.790;-77.084;2023-09-07T06:12:59;25;24;
45440;PMS5003;31189;38.790;-77.084;2023-09-07T06:15:25;27;27;
45440;PMS5003;31189;38.790;-77.084;2023-09-07T06:17:50;26;24;
45440;PMS5003;31189;38.790;-77.084;2023-09-07T06:20:15;30;28;
45440;PMS5003;31189;38.790;-77.084;2023-09-07T06:22:40;26;24;
45440;PMS5003;31189;38.790;-77.084;2023-09-07T06:25:06;26;25;
45440;PMS5003;31189;38.790;-77.084;2023-09-07T06:27:31;26;26;
45440;PMS5003;31189;38.790;-77.084;2023-09-07T06:29:56;29;28;
45440;PMS5003;31189;38.790;-77.084;2023-09-07T06:32:22;32;26;
45440;PMS5003;31189;38.790;-77.084;2023-09-07T06:34:48;28;25;
45440;PMS5003;31189;38.790;-77.084;2023-09-07T06:37:13;36;30;
45440;PMS5003;31189;38.790;-77.084;2023-09-07T06:39:39;28;27;
45440;PMS5003;31189;38.790;-77.084;2023-09-07T06:42:04;29;26;
45440;PMS5003;31189;38.790;-77.084;2023-09-07T06:44:29;34;28;
45440;PMS5003;31189;38.790;-77.084;2023-09-07T06:46:55;29;27;
45440;PMS5003;31189;38.790;-77.084;2023-09-07T06:49:21;29;27;
45440;PMS5003;31189;38.790;-77.084;2023-09-07T06:51:46;40;29;
45440;PMS5003;31189;38.790;-77.084;2023-09-07T06:54:11;26;25;
45440;PMS5003;31189;38.790;-77.084;2023-09-07T06:56:36;30;26;
45440;PMS5003;31189;38.790;-77.084;2023-09-07T06:59:02;32;26;
45440;PMS5003;31189;38.790;-77.084;2023-09-07T07:01:27;40;28;
45440;PMS5003;31189;38.790;-77.084;2023-09-07T07:03:53;32;25;
45440;PMS5003;31189;38.790;-77.084;2023-09-07T07:06:18;35;28;
45440;PMS5003;31189;38.790;-77.084;2023-09-07T07:08:43;30;27;
45440;PMS5003;31189;38.790;-77.084;2023-09-07T07:11:09;26;26;
45440;PMS5003;31189;38.790;-77.084;2023-09-07T07:13:34;28;24;
45440;PMS5003;31189;38.790;-77.084;2023-09-07T07:16:00;30;30;
45440;PMS5003;31189;38.790;-77.084;2023-09-07T07:18:25;34;27;
45440;PMS5003;31189;38.790;-77.084;2023-09-07T07:20:51;27;27;
45440;PMS5003;31189;38.790;-77.084;2023-09-07T07:23:16;32;30;
45440;PMS5003;31189;38.790;-77.084;2023-09-07T07:25:42;30;28;
45440;PMS5003;31189;38.790;-77.084;2023-09-07T07:28:07;36;28;
45440;PMS5003;31189;38.790;-77.084;2023-09-07T07:30:33;31;29;
45440;PMS5003;31189;38.790;-77.084;2023-09-07T07:32:59;37;26;
45440;PMS5003;31189;38.790;-77.084;2023-09-07T07:35:24;36;30;
45440;PMS5003;31189;38.790;-77.084;2023-09-07T07:37:49;27;25;
45440;PMS5003;31189;38.790;-77.084;2023-09-07T07:40:14;36;29;
45440;PMS5003;31189;38.790;-77.084;2023-09-07T07:42:39;29;28;
45440;PMS5003;31189;38.790;-77.084;2023-09-07T07:45:05;26;26;
45440;PMS5003;31189;38.790;-77.084;2023-09-07T07:47:30;30;30;
45440;PMS5003;31189;38.790;-77.084;2023-09-07T07:49:56;36;32;
45440;PMS5003;31189;38.790;-77.084;2023-09-07T07:52:21;29;26;
45440;PMS5003;31189;38.790;-77.084;2023-09-07T07:54:47;31;29;
45440;PMS5003;31189;38.790;-77.084;2023-09-07T07:57:12;43;32;
45440;PMS5003;31189;38.790;-77.084;2023-09-07T07:59:38;29;26;
45440;PMS5003;31189;38.790;-77.084;2023-09-07T08:02:03;25;25;
45440;PMS5003;31189;38.790;-77.084;2023-09-07T08:04:28;27;25;
45440;PMS5003;31189;38.790;-77.084;2023-09-07T08:06:53;35;26;
45440;PMS5003;31189;38.790;-77.084;2023-09-07T08:09:18;31;29;
45440;PMS5003;31189;38.790;-77.084;2023-09-07T08:11:44;38;26;
45440;PMS5003;31189;38.790;-77.084;2023-09-07T08:14:09;30;29;
45440;PMS5003;31189;38.790;-77.084;2023-09-07T08:16:34;29;28;
45440;PMS5003;31189;38.790;-77.084;2023-09-07T08:19:00;28;26;
45440;PMS5003;31189;38.790;-77.084;2023-09-07T08:21:25;30;28;
45440;PMS5003;31189;38.790;-77.084;2023-09-07T08:23:50;29;29;
45440;PMS5003;31189;38.790;-77.084;2023-09-07T08:26:15;34;33;
45440;PMS5003;31189;38.790;-77.084;2023-09-07T08:28:41;38;31;
45440;PMS5003;31189;38.790;-77.084;2023-09-07T08:31:06;33;27;
45440;PMS5003;31189;38.790;-77.084;2023-09-07T08:33:31;36;28;
45440;PMS5003;31189;38.790;-77.084;2023-09-07T08:35:57;45;29;
45440;PMS5003;31189;38.790;-77.084;2023-09-07T08:38:23;34;30;
45440;PMS5003;31189;38.790;-77.084;2023-09-07T08:40:48;27;27;
45440;PMS5003;31189;38.790;-77.084;2023-09-07T08:43:13;30;29;
45440;PMS5003;31189;38.790;-77.084;2023-09-07T08:45:41;30;30;
45440;PMS5003;31189;38.790;-77.084;2023-09-07T08:48:05;41;30;
45440;PMS5003;31189;38.790;-77.084;2023-09-07T08:50:29;37;31;
45440;PMS5003;31189;38.790;-77.084;2023-09-07T08:52:55;33;30;
45440;PMS5003;31189;38.790;-77.084;2023-09-07T08:55:20;34;31;
45440;PMS5003;31189;38.790;-77.084;2023-09-07T08:57:45;36;32;
45440;PMS5003;31189;38.790;-77.084;2023-09-07T09:00:11;33;32;
45440;PMS5003;31189;38.790;-77.084;2023-09-07T09:02:36;28;28;
45440;PMS5003;31189;38.790;-77.084;2023-09-07T09:05:01;42;32;
45440;PMS5003;31189;38.790;-77.084;2023-09-07T09:07:26;39;28;
45440;PMS5003;31189;38.790;-77.084;2023-09-07T09:10:01;31;29;
45440;PMS5003;31189;38.790;-77.084;2023-09-07T09:12:17;33;33;
45440;PMS5003;31189;38.790;-77.084;2023-09-07T09:14:42;36;30;
45440;PMS5003;31189;38.790;-77.084;2023-09-07T09:17:10;36;30;
45440;PMS5003;31189;38.790;-77.084;2023-09-07T09:19:34;32;32;
45440;PMS5003;31189;38.790;-77.084;2023-09-07T09:21:58;27;26;
45440;PMS5003;31189;38.790;-77.084;2023-09-07T09:24:24;42;33;
45440;PMS5003;31189;38.790;-77.084;2023-09-07T09:26:49;30;29;
45440;PMS5003;31189;38.790;-77.084;2023-09-07T09:29:15;40;29;
45440;PMS5003;31189;38.790;-77.084;2023-09-07T09:31:41;43;29;
45440;PMS5003;31189;38.790;-77.084;2023-09-07T09:34:06;29;29;
45440;PMS5003;31189;38.790;-77.084;2023-09-07T09:36:33;36;35;
45440;PMS5003;31189;38.790;-77.084;2023-09-07T09:38:57;37;32;
45440;PMS5003;31189;38.790;-77.084;2023-09-07T09:41:23;37;34;
45440;PMS5003;31189;38.790;-77.084;2023-09-07T09:43:49;45;32;
45440;PMS5003;31189;38.790;-77.084;2023-09-07T09:46:14;33;32;
45440;PMS5003;31189;38.790;-77.084;2023-09-07T09:48:40;36;32;
45440;PMS5003;31189;38.790;-77.084;2023-09-07T09:51:06;32;32;
45440;PMS5003;31189;38.790;-77.084;2023-09-07T09:53:31;34;33;
45440;PMS5003;31189;38.790;-77.084;2023-09-07T09:55:56;32;31;
45440;PMS5003;31189;38.790;-77.084;2023-09-07T09:58:21;35;35;
45440;PMS5003;31189;38.790;-77.084;2023-09-07T10:00:48;39;34;
45440;PMS5003;31189;38.790;-77.084;2023-09-07T10:03:16;33;32;
45440;PMS5003;31189;38.790;-77.084;2023-09-07T10:05:38;38;32;
45440;PMS5003;31189;38.790;-77.084;2023-09-07T10:08:08;32;32;
45440;PMS5003;31189;38.790;-77.084;2023-09-07T10:10:31;35;34;
45440;PMS5003;31189;38.790;-77.084;2023-09-07T10:12:55;27;27;
45440;PMS5003;31189;38.790;-77.084;2023-09-07T10:15:21;34;31;
45440;PMS5003;31189;38.790;-77.084;2023-09-07T10:17:45;44;35;
45440;PMS5003;31189;38.790;-77.084;2023-09-07T10:20:10;34;33;
45440;PMS5003;31189;38.790;-77.084;2023-09-07T10:22:36;41;29;
45440;PMS5003;31189;38.790;-77.084;2023-09-07T10:25:01;30;30;
45440;PMS5003;31189;38.790;-77.084;2023-09-07T10:27:26;48;33;
45440;PMS5003;31189;38.790;-77.084;2023-09-07T10:29:52;36;34;
45440;PMS5003;31189;38.790;-77.084;2023-09-07T10:32:17;33;33;
45440;PMS5003;31189;38.790;-77.084;2023-09-07T10:34:43;37;31;
45440;PMS5003;31189;38.790;-77.084;2023-09-07T10:37:08;35;35;
45440;PMS5003;31189;38.790;-77.084;2023-09-07T10:39:34;37;36;
45440;PMS5003;31189;38.790;-77.084;2023-09-07T10:41:59;44;36;
45440;PMS5003;31189;38.790;-77.084;2023-09-07T10:44:26;35;33;
45440;PMS5003;31189;38.790;-77.084;2023-09-07T10:46:50;31;31;
45440;PMS5003;31189;38.790;-77.084;2023-09-07T10:49:15;39;34;
45440;PMS5003;31189;38.790;-77.084;2023-09-07T10:51:41;38;34;
45440;PMS5003;31189;38.790;-77.084;2023-09-07T10:56:32;47;35;
45440;PMS5003;31189;38.790;-77.084;2023-09-07T10:58:58;47;35;
45440;PMS5003;31189;38.790;-77.084;2023-09-07T11:01:23;39;37;
45440;PMS5003;31189;38.790;-77.084;2023-09-07T11:03:49;38;32;
45440;PMS5003;31189;38.790;-77.084;2023-09-07T11:06:15;34;31;
45440;PMS5003;31189;38.790;-77.084;2023-09-07T11:08:40;36;35;
45440;PMS5003;31189;38.790;-77.084;2023-09-07T11:11:05;39;34;
45440;PMS5003;31189;38.790;-77.084;2023-09-07T11:13:31;45;33;
45440;PMS5003;31189;38.790;-77.084;2023-09-07T11:15:57;41;33;
45440;PMS5003;31189;38.790;-77.084;2023-09-07T11:18:22;42;34;
45440;PMS5003;31189;38.790;-77.084;2023-09-07T11:20:48;40;33;
45440;PMS5003;31189;38.790;-77.084;2023-09-07T11:23:13;44;32;
45440;PMS5003;31189;38.790;-77.084;2023-09-07T11:25:38;43;36;
45440;PMS5003;31189;38.790;-77.084;2023-09-07T11:28:04;37;32;
45440;PMS5003;31189;38.790;-77.084;2023-09-07T11:30:29;41;37;
45440;PMS5003;31189;38.790;-77.084;2023-09-07T11:35:21;38;35;
45440;PMS5003;31189;38.790;-77.084;2023-09-07T11:40:12;32;31;
45440;PMS5003;31189;38.790;-77.084;2023-09-07T11:42:38;44;33;
45440;PMS5003;31189;38.790;-77.084;2023-09-07T11:45:04;33;31;
45440;PMS5003;31189;38.790;-77.084;2023-09-07T11:47:28;44;34;
45440;PMS5003;31189;38.790;-77.084;2023-09-07T11:49:53;36;33;
45440;PMS5003;31189;38.790;-77.084;2023-09-07T11:52:19;34;32;
45440;PMS5003;31189;38.790;-77.084;2023-09-07T11:54:45;30;29;
45440;PMS5003;31189;38.790;-77.084;2023-09-07T11:57:10;29;29;
45440;PMS5003;31189;38.790;-77.084;2023-09-07T11:59:36;39;32;
45440;PMS5003;31189;38.790;-77.084;2023-09-07T12:02:01;40;29;
45440;PMS5003;31189;38.790;-77.084;2023-09-07T12:04:27;41;30;
45440;PMS5003;31189;38.790;-77.084;2023-09-07T12:06:52;37;31;
45440;PMS5003;31189;38.790;-77.084;2023-09-07T12:09:18;43;31;
45440;PMS5003;31189;38.790;-77.084;2023-09-07T12:11:43;36;32;
45440;PMS5003;31189;38.790;-77.084;2023-09-07T12:14:09;31;30;
45440;PMS5003;31189;38.790;-77.084;2023-09-07T12:16:34;36;32;
45440;PMS5003;31189;38.790;-77.084;2023-09-07T12:19:00;30;28;
45440;PMS5003;31189;38.790;-77.084;2023-09-07T12:21:25;33;30;
45440;PMS5003;31189;38.790;-77.084;2023-09-07T12:23:51;38;35;
45440;PMS5003;31189;38.790;-77.084;2023-09-07T12:26:16;41;31;
45440;PMS5003;31189;38.790;-77.084;2023-09-07T12:28:41;34;33;
45440;PMS5003;31189;38.790;-77.084;2023-09-07T12:31:06;36;34;
45440;PMS5003;31189;38.790;-77.084;2023-09-07T12:33:31;35;34;
45440;PMS5003;31189;38.790;-77.084;2023-09-07T12:35:57;37;36;
45440;PMS5003;31189;38.790;-77.084;2023-09-07T12:38:22;46;36;
45440;PMS5003;31189;38.790;-77.084;2023-09-07T12:40:47;43;39;
45440;PMS5003;31189;38.790;-77.084;2023-09-07T12:43:13;38;30;
45440;PMS5003;31189;38.790;-77.084;2023-09-07T12:45:39;46;37;
45440;PMS5003;31189;38.790;-77.084;2023-09-07T12:48:05;39;38;
45440;PMS5003;31189;38.790;-77.084;2023-09-07T12:50:30;55;39;
45440;PMS5003;31189;38.790;-77.084;2023-09-07T12:52:55;30;29;
45440;PMS5003;31189;38.790;-77.084;2023-09-07T12:55:20;40;37;
45440;PMS5003;31189;38.790;-77.084;2023-09-07T12:57:46;34;34;
45440;PMS5003;31189;38.790;-77.084;2023-09-07T13:00:12;47;38;
45440;PMS5003;31189;38.790;-77.084;2023-09-07T13:02:37;35;32;
45440;PMS5003;31189;38.790;-77.084;2023-09-07T13:05:03;37;37;
45440;PMS5003;31189;38.790;-77.084;2023-09-07T13:07:28;40;38;
45440;PMS5003;31189;38.790;-77.084;2023-09-07T13:09:53;43;34;
45440;PMS5003;31189;38.790;-77.084;2023-09-07T13:12:19;47;39;
45440;PMS5003;31189;38.790;-77.084;2023-09-07T13:14:44;33;33;
45440;PMS5003;31189;38.790;-77.084;2023-09-07T13:17:12;37;35;
45440;PMS5003;31189;38.790;-77.084;2023-09-07T13:19:35;42;40;
45440;PMS5003;31189;38.790;-77.084;2023-09-07T13:22:00;42;38;
45440;PMS5003;31189;38.790;-77.084;2023-09-07T13:24:26;49;36;
45440;PMS5003;31189;38.790;-77.084;2023-09-07T13:26:51;42;36;
45440;PMS5003;31189;38.790;-77.084;2023-09-07T13:29:17;43;36;
45440;PMS5003;31189;38.790;-77.084;2023-09-07T13:31:43;48;35;
45440;PMS5003;31189;38.790;-77.084;2023-09-07T13:34:08;39;37;
45440;PMS5003;31189;38.790;-77.084;2023-09-07T13:36:34;38;38;
45440;PMS5003;31189;38.790;-77.084;2023-09-07T13:38:58;43;36;
45440;PMS5003;31189;38.790;-77.084;2023-09-07T13:41:24;44;35;
45440;PMS5003;31189;38.790;-77.084;2023-09-07T13:43:50;40;38;
45440;PMS5003;31189;38.790;-77.084;2023-09-07T13:46:15;42;34;
45440;PMS5003;31189;38.790;-77.084;2023-09-07T13:48:40;33;32;
45440;PMS5003;31189;38.790;-77.084;2023-09-07T13:51:05;44;36;
45440;PMS5003;31189;38.790;-77.084;2023-09-07T13:53:31;42;37;
45440;PMS5003;31189;38.790;-77.084;2023-09-07T13:55:56;50;40;
45440;PMS5003;31189;38.790;-77.084;2023-09-07T13:58:22;42;37;
45440;PMS5003;31189;38.790;-77.084;2023-09-07T14:00:48;41;38;
45440;PMS5003;31189;38.790;-77.084;2023-09-07T14:03:13;36;35;
45440;PMS5003;31189;38.790;-77.084;2023-09-07T14:05:38;33;33;
45440;PMS5003;31189;38.790;-77.084;2023-09-07T14:08:03;41;37;
45440;PMS5003;31189;38.790;-77.084;2023-09-07T14:10:29;44;32;
45440;PMS5003;31189;38.790;-77.084;2023-09-07T14:12:55;42;33;
45440;PMS5003;31189;38.790;-77.084;2023-09-07T14:15:20;38;36;
45440;PMS5003;31189;38.790;-77.084;2023-09-07T14:17:45;33;31;
45440;PMS5003;31189;38.790;-77.084;2023-09-07T14:20:11;42;31;
45440;PMS5003;31189;38.790;-77.084;2023-09-07T14:22:36;30;30;
45440;PMS5003;31189;38.790;-77.084;2023-09-07T14:25:02;40;38;
45440;PMS5003;31189;38.790;-77.084;2023-09-07T14:27:28;42;34;
45440;PMS5003;31189;38.790;-77.084;2023-09-07T14:29:53;46;33;
45440;PMS5003;31189;38.790;-77.084;2023-09-07T14:32:18;43;37;
45440;PMS5003;31189;38.790;-77.084;2023-09-07T14:34:44;38;35;
45440;PMS5003;31189;38.790;-77.084;2023-09-07T14:37:10;35;34;
45440;PMS5003;31189;38.790;-77.084;2023-09-07T14:39:35;41;36;
45440;PMS5003;31189;38.790;-77.084;2023-09-07T14:42:01;46;35;
45440;PMS5003;31189;38.790;-77.084;2023-09-07T14:44:26;33;33;
45440;PMS5003;31189;38.790;-77.084;2023-09-07T14:46:52;43;31;
45440;PMS5003;31189;38.790;-77.084;2023-09-07T14:49:18;38;31;
45440;PMS5003;31189;38.790;-77.084;2023-09-07T14:51:43;39;32;
45440;PMS5003;31189;38.790;-77.084;2023-09-07T14:54:08;45;34;
45440;PMS5003;31189;38.790;-77.084;2023-09-07T14:56:33;44;31;
45440;PMS5003;31189;38.790;-77.084;2023-09-07T14:58:59;46;34;
45440;PMS5003;31189;38.790;-77.084;2023-09-07T15:01:24;37;32;
45440;PMS5003;31189;38.790;-77.084;2023-09-07T15:03:49;41;28;
45440;PMS5003;31189;38.790;-77.084;2023-09-07T15:06:15;30;29;
45440;PMS5003;31189;38.790;-77.084;2023-09-07T15:08:40;30;30;
45440;PMS5003;31189;38.790;-77.084;2023-09-07T15:11:06;32;30;
45440;PMS5003;31189;38.790;-77.084;2023-09-07T15:13:32;35;29;
45440;PMS5003;31189;38.790;-77.084;2023-09-07T15:15:57;33;31;
45440;PMS5003;31189;38.790;-77.084;2023-09-07T15:18:23;37;34;
45440;PMS5003;31189;38.790;-77.084;2023-09-07T15:20:48;33;28;
45440;PMS5003;31189;38.790;-77.084;2023-09-07T15:23:13;40;29;
45440;PMS5003;31189;38.790;-77.084;2023-09-07T15:25:39;29;29;
45440;PMS5003;31189;38.790;-77.084;2023-09-07T15:28:04;47;33;
45440;PMS5003;31189;38.790;-77.084;2023-09-07T15:30:29;35;33;
45440;PMS5003;31189;38.790;-77.084;2023-09-07T15:32:55;32;32;
45440;PMS5003;31189;38.790;-77.084;2023-09-07T15:35:20;38;31;
45440;PMS5003;31189;38.790;-77.084;2023-09-07T15:37:45;42;33;
45440;PMS5003;31189;38.790;-77.084;2023-09-07T15:40:11;37;31;
45440;PMS5003;31189;38.790;-77.084;2023-09-07T15:42:37;38;36;
45440;PMS5003;31189;38.790;-77.084;2023-09-07T15:45:02;30;30;